createdAt,value
2018-08-23T00:00:06.567Z,26.8
2018-08-23T00:01:09.657Z,26.8
2018-08-23T00:02:21.372Z,26.8
2018-08-23T00:03:22.659Z,26.8
2018-08-23T00:04:24.566Z,26.8
2018-08-23T00:05:23.897Z,26.8
2018-08-23T00:06:19.619Z,26.8
2018-08-23T00:07:36.397Z,26.8
2018-08-23T00:08:31.633Z,26.8
2018-08-23T00:09:33.549Z,26.8
2018-08-23T00:10:31.387Z,26.8
2018-08-23T00:11:29.289Z,26.8
2018-08-23T00:12:29.587Z,26.8
2018-08-23T00:13:28.910Z,26.8
2018-08-23T00:14:28.526Z,26.8
2018-08-23T00:15:23.988Z,26.8
2018-08-23T00:16:26.590Z,26.8
2018-08-23T00:17:40.852Z,26.8
2018-08-23T00:18:36.223Z,26.8
2018-08-23T00:19:37.010Z,26.8
2018-08-23T00:20:37.043Z,26.8
2018-08-23T00:21:34.404Z,26.8
2018-08-23T00:22:48.976Z,26.8
2018-08-23T00:23:47.687Z,26.7
2018-08-23T00:24:46.561Z,26.8
2018-08-23T00:25:45.448Z,26.8
2018-08-23T00:26:44.185Z,26.8
2018-08-23T00:27:42.082Z,26.7
2018-08-23T00:28:51.769Z,26.7
2018-08-23T00:29:53.467Z,26.7
2018-08-23T00:30:51.120Z,26.7
2018-08-23T00:31:56.064Z,26.7
2018-08-23T00:32:54.049Z,26.7
2018-08-23T00:34:04.733Z,26.7
2018-08-23T00:35:04.671Z,26.7
2018-08-23T00:36:04.141Z,26.7
2018-08-23T00:37:08.565Z,26.7
2018-08-23T00:38:10.424Z,26.7
2018-08-23T00:39:11.930Z,26.7
2018-08-23T00:40:11.344Z,26.7
2018-08-23T00:41:09.981Z,26.7
2018-08-23T00:42:12.865Z,26.7
2018-08-23T00:43:20.434Z,26.7
2018-08-23T00:44:18.428Z,26.7
2018-08-23T00:45:19.883Z,26.7
2018-08-23T00:46:17.798Z,26.7
2018-08-23T00:47:34.134Z,26.7
2018-08-23T00:48:29.374Z,26.7
2018-08-23T00:49:28.756Z,26.7
2018-08-23T00:50:39.061Z,26.7
2018-08-23T00:51:37.044Z,26.7
2018-08-23T00:52:35.670Z,26.7
2018-08-23T00:53:34.642Z,26.7
2018-08-23T00:54:42.103Z,26.7
2018-08-23T00:55:37.766Z,26.7
2018-08-23T00:56:40.072Z,26.7
2018-08-23T00:57:36.031Z,26.7
2018-08-23T00:58:52.911Z,26.7
2018-08-23T00:59:48.936Z,26.7
2018-08-23T01:00:49.122Z,26.7
2018-08-23T01:01:49.429Z,26.7
2018-08-23T01:02:48.276Z,26.7
2018-08-23T01:03:48.363Z,26.7
2018-08-23T01:04:57.220Z,26.7
2018-08-23T01:05:57.714Z,26.7
2018-08-23T01:07:02.112Z,26.7
2018-08-23T01:07:59.819Z,26.6
2018-08-23T01:08:54.934Z,26.6
2018-08-23T01:09:56.557Z,26.6
2018-08-23T01:11:14.342Z,26.6
2018-08-23T01:12:08.678Z,26.7
2018-08-23T01:13:08.019Z,26.6
2018-08-23T01:14:07.185Z,26.6
2018-08-23T01:15:05.716Z,26.6
2018-08-23T01:16:06.669Z,26.7
2018-08-23T01:17:08.479Z,26.6
2018-08-23T01:18:06.476Z,26.6
2018-08-23T01:19:06.553Z,26.6
2018-08-23T01:20:03.424Z,26.6
2018-08-23T01:21:07.694Z,26.6
2018-08-23T01:22:08.975Z,26.6
2018-08-23T01:23:13.939Z,26.6
2018-08-23T01:24:12.489Z,26.6
2018-08-23T01:25:12.886Z,26.6
2018-08-23T01:26:21.670Z,26.6
2018-08-23T01:27:24.672Z,26.6
2018-08-23T01:28:25.672Z,26.6
2018-08-23T01:29:23.425Z,26.6
2018-08-23T01:30:23.903Z,26.6
2018-08-23T01:31:23.064Z,26.6
2018-08-23T01:32:22.498Z,26.6
2018-08-23T01:33:18.584Z,26.6
2018-08-23T01:34:23.762Z,26.6
2018-08-23T01:35:20.261Z,26.6
2018-08-23T01:36:28.015Z,26.6
2018-08-23T01:37:41.978Z,26.6
2018-08-23T01:38:36.580Z,26.6
2018-08-23T01:39:35.103Z,26.6
2018-08-23T01:40:38.053Z,26.6
2018-08-23T01:41:38.927Z,26.6
2018-08-23T01:42:37.339Z,26.6
2018-08-23T01:43:35.308Z,26.6
2018-08-23T01:44:34.991Z,26.6
2018-08-23T01:45:32.481Z,26.6
2018-08-23T01:46:30.330Z,26.6
2018-08-23T01:47:25.562Z,26.6
2018-08-23T01:48:42.413Z,26.6
2018-08-23T01:49:42.101Z,26.6
2018-08-23T01:50:42.277Z,26.6
2018-08-23T01:51:45.563Z,26.6
2018-08-23T01:52:44.673Z,26.6
2018-08-23T01:53:44.845Z,26.6
2018-08-23T01:54:44.558Z,26.5
2018-08-23T01:55:45.669Z,26.6
2018-08-23T01:56:47.509Z,26.6
2018-08-23T01:57:52.397Z,26.6
2018-08-23T01:58:49.871Z,26.6
2018-08-23T01:59:47.169Z,26.6
2018-08-23T02:00:44.498Z,26.6
2018-08-23T02:01:59.491Z,26.6
2018-08-23T02:03:09.915Z,26.6
2018-08-23T02:04:07.886Z,26.6
2018-08-23T02:05:08.552Z,26.6
2018-08-23T02:06:05.667Z,26.6
2018-08-23T02:07:09.217Z,26.6
2018-08-23T02:08:07.218Z,26.6
2018-08-23T02:09:10.286Z,26.5
2018-08-23T02:10:09.886Z,26.5
2018-08-23T02:11:08.668Z,26.6
2018-08-23T02:12:12.102Z,26.6
2018-08-23T02:13:09.036Z,26.5
2018-08-23T02:14:23.884Z,26.5
2018-08-23T02:15:21.364Z,26.6
2018-08-23T02:16:22.966Z,26.5
2018-08-23T02:17:34.885Z,26.5
2018-08-23T02:18:34.669Z,26.5
2018-08-23T02:19:37.520Z,26.6
2018-08-23T02:20:32.618Z,26.6
2018-08-23T02:21:35.816Z,26.6
2018-08-23T02:22:34.267Z,26.5
2018-08-23T02:23:33.116Z,26.5
2018-08-23T02:24:31.646Z,26.5
2018-08-23T02:25:45.901Z,26.5
2018-08-23T02:26:42.595Z,26.5
2018-08-23T02:27:43.885Z,26.5
2018-08-23T02:28:52.103Z,26.6
2018-08-23T02:29:49.008Z,26.5
2018-08-23T02:30:49.747Z,26.5
2018-08-23T02:31:49.185Z,26.5
2018-08-23T02:32:49.769Z,26.5
2018-08-23T02:33:53.827Z,26.5
2018-08-23T02:34:48.960Z,26.5
2018-08-23T02:36:01.842Z,26.5
2018-08-23T02:36:59.284Z,26.5
2018-08-23T02:37:57.420Z,26.5
2018-08-23T02:38:55.429Z,26.5
2018-08-23T02:39:54.149Z,26.5
2018-08-23T02:40:57.622Z,26.5
2018-08-23T02:41:52.978Z,26.5
2018-08-23T02:42:53.490Z,26.5
2018-08-23T02:43:57.456Z,26.5
2018-08-23T02:44:57.913Z,26.5
2018-08-23T02:46:20.623Z,26.5
2018-08-23T02:47:16.169Z,26.5
2018-08-23T02:48:17.077Z,26.5
2018-08-23T02:49:21.447Z,26.5
2018-08-23T02:50:21.518Z,26.5
2018-08-23T02:51:26.844Z,26.5
2018-08-23T02:52:22.262Z,26.5
2018-08-23T02:53:24.445Z,26.5
2018-08-23T02:54:27.385Z,26.5
2018-08-23T02:55:31.002Z,26.5
2018-08-23T02:56:29.318Z,26.5
2018-08-23T02:57:28.238Z,26.5
2018-08-23T02:58:27.389Z,26.5
2018-08-23T02:59:42.019Z,26.5
2018-08-23T03:00:37.470Z,26.5
2018-08-23T03:01:34.992Z,26.5
2018-08-23T03:02:33.247Z,26.5
2018-08-23T03:03:31.909Z,26.5
2018-08-23T03:04:31.313Z,26.5
2018-08-23T03:05:35.258Z,26.5
2018-08-23T03:06:34.436Z,26.5
2018-08-23T03:07:34.973Z,26.5
2018-08-23T03:08:36.333Z,26.5
2018-08-23T03:09:35.251Z,26.5
2018-08-23T03:10:40.389Z,26.4
2018-08-23T03:11:38.229Z,26.4
2018-08-23T03:12:32.865Z,26.4
2018-08-23T03:13:30.929Z,26.4
2018-08-23T03:14:31.815Z,26.5
2018-08-23T03:15:32.024Z,26.4
2018-08-23T03:16:30.387Z,26.4
2018-08-23T03:17:39.899Z,26.4
2018-08-23T03:18:58.131Z,26.5
2018-08-23T03:19:56.241Z,26.4
2018-08-23T03:20:56.405Z,26.4
2018-08-23T03:21:54.266Z,26.4
2018-08-23T03:22:53.031Z,26.4
2018-08-23T03:23:56.900Z,26.4
2018-08-23T03:24:54.670Z,26.4
2018-08-23T03:25:51.387Z,26.4
2018-08-23T03:26:58.870Z,26.4
2018-08-23T03:27:55.857Z,26.4
2018-08-23T03:28:56.709Z,26.4
2018-08-23T03:29:53.289Z,26.4
2018-08-23T03:31:05.884Z,26.4
2018-08-23T03:32:04.185Z,26.4
2018-08-23T03:33:03.283Z,26.4
2018-08-23T03:34:12.780Z,26.4
2018-08-23T03:35:12.888Z,26.4
2018-08-23T03:36:17.278Z,26.4
2018-08-23T03:37:12.882Z,26.4
2018-08-23T03:38:16.113Z,26.4
2018-08-23T03:39:26.039Z,26.4
2018-08-23T03:40:26.712Z,26.4
2018-08-23T03:41:26.832Z,26.4
2018-08-23T03:42:46.152Z,26.4
2018-08-23T03:42:58.476Z,26.4
2018-08-23T03:43:57.213Z,26.4
2018-08-23T03:45:00.281Z,26.4
2018-08-23T03:46:03.430Z,26.4
2018-08-23T03:47:06.193Z,26.3
2018-08-23T03:48:03.763Z,26.3
2018-08-23T03:49:02.524Z,26.3
2018-08-23T03:50:09.325Z,26.3
2018-08-23T03:51:13.218Z,26.3
2018-08-23T03:52:11.409Z,26.3
2018-08-23T03:53:23.846Z,26.3
2018-08-23T03:54:18.248Z,26.3
2018-08-23T03:55:16.651Z,26.3
2018-08-23T03:56:13.836Z,26.3
2018-08-23T03:57:18.080Z,26.3
2018-08-23T03:58:20.151Z,26.3
2018-08-23T03:59:19.304Z,26.3
2018-08-23T04:00:19.336Z,26.3
2018-08-23T04:01:18.321Z,26.3
2018-08-23T04:02:12.893Z,26.3
2018-08-23T04:03:11.896Z,26.3
2018-08-23T04:04:14.061Z,26.3
2018-08-23T04:05:16.506Z,26.2
2018-08-23T04:06:22.721Z,26.3
2018-08-23T04:07:38.797Z,26.3
2018-08-23T04:08:35.913Z,26.3
2018-08-23T04:09:36.940Z,26.2
2018-08-23T04:10:40.473Z,26.2
2018-08-23T04:11:39.854Z,26.2
2018-08-23T04:12:38.561Z,26.3
2018-08-23T04:13:37.609Z,26.2
2018-08-23T04:14:39.193Z,26.2
2018-08-23T04:15:40.840Z,26.2
2018-08-23T04:16:38.954Z,26.2
2018-08-23T04:17:42.188Z,26.2
2018-08-23T04:18:40.290Z,26.2
2018-08-23T04:19:35.686Z,26.2
2018-08-23T04:20:42.417Z,26.2
2018-08-23T04:21:43.849Z,26.1
2018-08-23T04:22:44.137Z,26.2
2018-08-23T04:23:56.697Z,26.1
2018-08-23T04:24:51.396Z,26.2
2018-08-23T04:25:52.749Z,26.1
2018-08-23T04:26:55.259Z,26.1
2018-08-23T04:27:53.533Z,26.1
2018-08-23T04:28:51.373Z,26.1
2018-08-23T04:29:51.740Z,26.1
2018-08-23T04:30:51.304Z,26.1
2018-08-23T04:31:51.796Z,26.1
2018-08-23T04:32:48.538Z,26.1
2018-08-23T04:33:48.769Z,26.1
2018-08-23T04:34:43.790Z,26.1
2018-08-23T04:35:46.315Z,26.1
2018-08-23T04:36:54.642Z,26.1
2018-08-23T04:38:07.510Z,26.1
2018-08-23T04:39:16.760Z,26.1
2018-08-23T04:40:12.579Z,26.1
2018-08-23T04:41:13.835Z,26.1
2018-08-23T04:42:11.948Z,26.1
2018-08-23T04:43:11.632Z,26.1
2018-08-23T04:44:10.393Z,26
2018-08-23T04:45:13.064Z,26
2018-08-23T04:46:09.113Z,26
2018-08-23T04:47:25.636Z,26
2018-08-23T04:48:31.507Z,26
2018-08-23T04:49:28.794Z,26
2018-08-23T04:50:43.162Z,26
2018-08-23T04:51:55.708Z,26
2018-08-23T04:52:55.974Z,26
2018-08-23T04:54:18.718Z,26
2018-08-23T04:55:18.851Z,26
2018-08-23T04:56:18.261Z,26
2018-08-23T04:57:21.904Z,26
2018-08-23T04:58:19.325Z,26
2018-08-23T04:59:17.141Z,25.9
2018-08-23T05:00:11.735Z,26
2018-08-23T05:01:16.114Z,25.9
2018-08-23T05:02:18.776Z,25.9
2018-08-23T05:03:23.015Z,25.9
2018-08-23T05:04:34.799Z,25.9
2018-08-23T05:05:32.074Z,25.9
2018-08-23T05:06:35.870Z,25.9
2018-08-23T05:07:34.668Z,25.9
2018-08-23T05:08:44.593Z,25.9
2018-08-23T05:09:42.526Z,25.9
2018-08-23T05:10:41.679Z,25.9
2018-08-23T05:11:40.422Z,25.9
2018-08-23T05:12:39.002Z,25.9
2018-08-23T05:13:35.587Z,25.9
2018-08-23T05:14:46.486Z,25.9
2018-08-23T05:15:44.455Z,25.9
2018-08-23T05:16:45.289Z,25.9
2018-08-23T05:17:45.209Z,25.9
2018-08-23T05:18:49.469Z,25.9
2018-08-23T05:19:46.803Z,25.9
2018-08-23T05:20:49.984Z,25.9
2018-08-23T05:21:53.589Z,25.9
2018-08-23T05:22:57.579Z,25.9
2018-08-23T05:23:53.580Z,25.8
2018-08-23T05:24:53.823Z,25.8
2018-08-23T05:26:00.763Z,25.8
2018-08-23T05:27:13.739Z,25.8
2018-08-23T05:28:12.383Z,25.8
2018-08-23T05:29:12.225Z,25.8
2018-08-23T05:30:10.569Z,25.8
2018-08-23T05:31:10.957Z,25.8
2018-08-23T05:32:09.396Z,25.8
2018-08-23T05:33:11.035Z,25.8
2018-08-23T05:34:08.522Z,25.8
2018-08-23T05:35:11.475Z,25.8
2018-08-23T05:36:11.844Z,25.8
2018-08-23T05:37:11.412Z,25.8
2018-08-23T05:38:26.575Z,25.8
2018-08-23T05:39:24.799Z,25.8
2018-08-23T05:40:23.499Z,25.8
2018-08-23T05:41:19.918Z,25.8
2018-08-23T05:42:23.197Z,25.8
2018-08-23T05:43:18.825Z,25.8
2018-08-23T05:44:19.408Z,25.8
2018-08-23T05:45:27.246Z,25.7
2018-08-23T05:46:25.515Z,25.8
2018-08-23T05:47:23.963Z,25.7
2018-08-23T05:48:25.314Z,25.7
2018-08-23T05:49:24.338Z,25.7
2018-08-23T05:50:27.335Z,25.7
2018-08-23T05:51:37.503Z,25.6
2018-08-23T05:52:42.335Z,25.7
2018-08-23T05:53:40.781Z,25.6
2018-08-23T05:54:45.676Z,25.6
2018-08-23T05:55:43.455Z,25.6
2018-08-23T05:56:52.864Z,25.6
2018-08-23T05:57:48.546Z,25.6
2018-08-23T05:58:47.285Z,25.6
2018-08-23T05:59:47.641Z,25.5
2018-08-23T06:00:52.803Z,25.5
2018-08-23T06:01:53.748Z,25.5
2018-08-23T06:02:53.276Z,25.6
2018-08-23T06:04:07.077Z,25.5
2018-08-23T06:05:16.394Z,25.5
2018-08-23T06:06:15.077Z,25.5
2018-08-23T06:07:14.811Z,25.5
2018-08-23T06:08:14.334Z,25.5
2018-08-23T06:09:14.671Z,25.5
2018-08-23T06:10:21.148Z,25.5
2018-08-23T06:11:19.110Z,25.5
2018-08-23T06:12:21.014Z,25.5
2018-08-23T06:13:16.015Z,25.5
2018-08-23T06:14:17.386Z,25.5
2018-08-23T06:15:12.874Z,25.5
2018-08-23T06:16:10.363Z,25.5
2018-08-23T06:17:22.679Z,25.5
2018-08-23T06:18:20.568Z,25.5
2018-08-23T06:19:23.423Z,25.5
2018-08-23T06:20:21.067Z,25.5
2018-08-23T06:21:21.924Z,25.5
2018-08-23T06:22:24.579Z,25.5
2018-08-23T06:23:23.744Z,25.5
2018-08-23T06:24:21.815Z,25.6
2018-08-23T06:25:22.166Z,25.6
2018-08-23T06:26:19.037Z,25.6
2018-08-23T06:27:22.167Z,25.6
2018-08-23T06:28:20.497Z,25.6
2018-08-23T06:29:34.523Z,25.6
2018-08-23T06:30:37.583Z,25.6
2018-08-23T06:31:38.922Z,25.6
2018-08-23T06:32:35.832Z,25.7
2018-08-23T06:33:40.002Z,25.7
2018-08-23T06:34:40.417Z,25.7
2018-08-23T06:35:41.456Z,25.7
2018-08-23T06:36:44.576Z,25.7
2018-08-23T06:37:48.090Z,25.7
2018-08-23T06:38:46.255Z,25.7
2018-08-23T06:39:43.777Z,25.7
2018-08-23T06:40:44.934Z,25.7
2018-08-23T06:42:04.273Z,25.8
2018-08-23T06:43:26.870Z,25.8
2018-08-23T06:44:20.635Z,25.7
2018-08-23T06:45:18.334Z,25.8
2018-08-23T06:46:14.971Z,25.8
2018-08-23T06:47:16.932Z,25.8
2018-08-23T06:48:17.994Z,25.8
2018-08-23T06:49:16.828Z,25.8
2018-08-23T06:50:14.977Z,25.8
2018-08-23T06:51:13.470Z,25.8
2018-08-23T06:52:11.781Z,25.8
2018-08-23T06:53:16.908Z,25.8
2018-08-23T06:54:18.861Z,25.8
2018-08-23T06:55:31.282Z,25.8
2018-08-23T06:56:26.520Z,25.8
2018-08-23T06:57:26.140Z,25.8
2018-08-23T06:58:32.707Z,25.8
2018-08-23T06:59:31.862Z,25.8
2018-08-23T07:00:29.345Z,25.9
2018-08-23T07:01:26.773Z,25.8
2018-08-23T07:02:25.433Z,25.8
2018-08-23T07:03:25.136Z,25.8
2018-08-23T07:04:21.735Z,25.9
2018-08-23T07:05:23.885Z,25.9
2018-08-23T07:06:21.781Z,25.9
2018-08-23T07:07:26.340Z,25.9
2018-08-23T07:08:28.410Z,25.9
2018-08-23T07:09:27.917Z,25.9
2018-08-23T07:10:39.670Z,25.9
2018-08-23T07:11:39.390Z,25.9
2018-08-23T07:12:39.811Z,25.9
2018-08-23T07:13:38.959Z,25.9
2018-08-23T07:14:40.709Z,25.9
2018-08-23T07:15:40.582Z,25.9
2018-08-23T07:16:39.323Z,25.9
2018-08-23T07:17:38.749Z,25.9
2018-08-23T07:18:37.267Z,25.9
2018-08-23T07:19:35.697Z,25.9
2018-08-23T07:20:32.800Z,25.9
2018-08-23T07:21:33.207Z,25.9
2018-08-23T07:22:31.683Z,25.9
2018-08-23T07:23:34.856Z,25.9
2018-08-23T07:24:29.581Z,25.9
2018-08-23T07:25:46.307Z,26
2018-08-23T07:26:43.728Z,26
2018-08-23T07:27:45.584Z,26
2018-08-23T07:28:45.827Z,26
2018-08-23T07:29:46.867Z,26
2018-08-23T07:30:47.223Z,26
2018-08-23T07:31:51.848Z,26
2018-08-23T07:32:52.007Z,26
2018-08-23T07:34:01.100Z,26
2018-08-23T07:35:00.239Z,26
2018-08-23T07:35:55.095Z,26
2018-08-23T07:36:52.422Z,26
2018-08-23T07:37:50.661Z,26
2018-08-23T07:38:53.605Z,26
2018-08-23T07:39:52.544Z,26
2018-08-23T07:41:06.351Z,26
2018-08-23T07:42:01.299Z,26
2018-08-23T07:43:00.371Z,26
2018-08-23T07:44:00.270Z,26.1
2018-08-23T07:44:56.484Z,26
2018-08-23T07:46:01.502Z,26
2018-08-23T07:47:07.276Z,26
2018-08-23T07:48:05.451Z,26.1
2018-08-23T07:49:09.494Z,26.1
2018-08-23T07:50:15.105Z,26.1
2018-08-23T07:51:15.665Z,26.1
2018-08-23T07:52:11.042Z,26.1
2018-08-23T07:53:22.902Z,26.1
2018-08-23T07:54:17.515Z,26.1
2018-08-23T07:55:18.118Z,26.1
2018-08-23T07:56:23.362Z,26.1
2018-08-23T07:57:24.425Z,26.1
2018-08-23T07:58:23.207Z,26.1
2018-08-23T07:59:22.334Z,26.1
2018-08-23T08:00:21.673Z,26.1
2018-08-23T08:01:22.452Z,26.1
2018-08-23T08:02:21.569Z,26.1
2018-08-23T08:03:19.878Z,26.1
2018-08-23T08:04:18.806Z,26.1
2018-08-23T08:05:16.645Z,26.1
2018-08-23T08:06:14.346Z,26.1
2018-08-23T08:07:18.497Z,26.1
2018-08-23T08:08:15.240Z,26.1
2018-08-23T08:09:27.235Z,26.1
2018-08-23T08:10:25.729Z,26.1
2018-08-23T08:11:27.954Z,26.1
2018-08-23T08:12:28.053Z,26.2
2018-08-23T08:13:27.109Z,26.1
2018-08-23T08:14:25.214Z,26.1
2018-08-23T08:15:26.747Z,26.2
2018-08-23T08:16:31.366Z,26.2
2018-08-23T08:17:31.086Z,26.2
2018-08-23T08:18:28.532Z,26.2
2018-08-23T08:19:43.013Z,26.2
2018-08-23T08:20:38.650Z,26.2
2018-08-23T08:21:38.609Z,26.2
2018-08-23T08:22:41.809Z,26.2
2018-08-23T08:23:44.898Z,26.2
2018-08-23T08:24:44.333Z,26.2
2018-08-23T08:25:41.036Z,26.2
2018-08-23T08:26:40.159Z,26.2
2018-08-23T08:27:46.412Z,26.2
2018-08-23T08:28:48.274Z,26.2
2018-08-23T08:29:50.415Z,26.2
2018-08-23T08:30:45.140Z,26.2
2018-08-23T08:31:48.560Z,26.2
2018-08-23T08:32:48.317Z,26.2
2018-08-23T08:33:54.438Z,26.2
2018-08-23T08:35:08.149Z,26.3
2018-08-23T08:36:05.670Z,26.3
2018-08-23T08:37:15.388Z,26.3
2018-08-23T08:38:13.035Z,26.3
2018-08-23T08:39:12.227Z,26.3
2018-08-23T08:40:21.992Z,26.3
2018-08-23T08:41:22.834Z,26.3
2018-08-23T08:42:22.409Z,26.3
2018-08-23T08:43:21.331Z,26.3
2018-08-23T08:44:20.328Z,26.3
2018-08-23T08:45:33.513Z,26.3
2018-08-23T08:46:31.837Z,26.4
2018-08-23T08:47:30.358Z,26.4
2018-08-23T08:48:28.632Z,26.4
2018-08-23T08:49:29.301Z,26.4
2018-08-23T08:50:31.696Z,26.4
2018-08-23T08:51:33.331Z,26.5
2018-08-23T08:52:37.416Z,26.4
2018-08-23T08:53:37.223Z,26.5
2018-08-23T08:54:34.887Z,26.5
2018-08-23T08:55:43.368Z,26.5
2018-08-23T08:56:37.878Z,26.5
2018-08-23T08:57:50.818Z,26.5
2018-08-23T08:58:50.904Z,26.5
2018-08-23T08:59:54.096Z,26.5
2018-08-23T09:00:54.982Z,26.6
2018-08-23T09:01:55.336Z,26.5
2018-08-23T09:02:50.829Z,26.5
2018-08-23T09:03:51.219Z,26.6
2018-08-23T09:04:58.951Z,26.6
2018-08-23T09:06:04.151Z,26.6
2018-08-23T09:07:01.171Z,26.6
2018-08-23T09:08:17.623Z,26.6
2018-08-23T09:09:16.096Z,26.6
2018-08-23T09:10:15.513Z,26.6
2018-08-23T09:11:12.663Z,26.6
2018-08-23T09:12:17.270Z,26.6
2018-08-23T09:13:17.870Z,26.6
2018-08-23T09:14:15.716Z,26.6
2018-08-23T09:15:15.389Z,26.7
2018-08-23T09:16:27.141Z,26.7
2018-08-23T09:17:29.160Z,26.7
2018-08-23T09:18:23.770Z,26.7
2018-08-23T09:19:21.309Z,26.7
2018-08-23T09:20:22.460Z,26.7
2018-08-23T09:21:34.557Z,26.7
2018-08-23T09:22:35.342Z,26.7
2018-08-23T09:23:33.945Z,26.7
2018-08-23T09:24:31.989Z,26.7
2018-08-23T09:25:32.148Z,26.7
2018-08-23T09:26:32.498Z,26.7
2018-08-23T09:27:31.797Z,26.7
2018-08-23T09:28:33.145Z,26.8
2018-08-23T09:29:33.750Z,26.8
2018-08-23T09:30:33.804Z,26.8
2018-08-23T09:31:32.438Z,26.8
2018-08-23T09:32:46.584Z,26.8
2018-08-23T09:33:42.020Z,26.8
2018-08-23T09:34:40.200Z,26.8
2018-08-23T09:35:40.832Z,26.8
2018-08-23T09:36:38.517Z,26.8
2018-08-23T09:37:38.491Z,26.8
2018-08-23T09:38:39.193Z,26.8
2018-08-23T09:39:37.862Z,26.8
2018-08-23T09:40:36.203Z,26.8
2018-08-23T09:41:35.650Z,26.8
2018-08-23T09:42:48.830Z,26.8
2018-08-23T09:43:43.219Z,26.8
2018-08-23T09:44:41.967Z,26.8
2018-08-23T09:45:39.573Z,26.8
2018-08-23T09:46:37.072Z,26.9
2018-08-23T09:47:34.614Z,26.8
2018-08-23T09:48:32.125Z,26.9
2018-08-23T09:49:31.808Z,26.8
2018-08-23T09:50:29.900Z,26.9
2018-08-23T09:51:26.360Z,26.9
2018-08-23T09:52:40.271Z,26.9
2018-08-23T09:53:34.624Z,26.9
2018-08-23T09:54:34.260Z,26.9
2018-08-23T09:55:33.962Z,26.9
2018-08-23T09:56:32.540Z,26.9
2018-08-23T09:57:31.581Z,26.9
2018-08-23T09:58:35.074Z,26.9
2018-08-23T09:59:33.239Z,26.9
2018-08-23T10:00:32.228Z,26.9
2018-08-23T10:01:30.876Z,26.9
2018-08-23T10:02:26.265Z,26.9
2018-08-23T10:03:38.721Z,26.9
2018-08-23T10:04:38.268Z,26.9
2018-08-23T10:05:35.843Z,26.9
2018-08-23T10:06:36.772Z,26.9
2018-08-23T10:07:42.016Z,26.9
2018-08-23T10:08:45.480Z,26.9
2018-08-23T10:09:43.139Z,26.9
2018-08-23T10:10:41.337Z,26.9
2018-08-23T10:11:40.922Z,26.9
2018-08-23T10:12:42.853Z,26.9
2018-08-23T10:13:44.301Z,26.9
2018-08-23T10:14:40.033Z,26.9
2018-08-23T10:15:54.235Z,27
2018-08-23T10:16:48.546Z,27
2018-08-23T10:17:48.419Z,27
2018-08-23T10:18:49.157Z,27
2018-08-23T10:19:51.211Z,27
2018-08-23T10:20:51.545Z,27
2018-08-23T10:21:51.514Z,27
2018-08-23T10:22:52.639Z,27
2018-08-23T10:23:50.910Z,27.1
2018-08-23T10:24:54.640Z,27.1
2018-08-23T10:25:53.113Z,27.1
2018-08-23T10:26:52.468Z,27.1
2018-08-23T10:27:53.274Z,27.1
2018-08-23T10:28:51.874Z,27.2
2018-08-23T10:29:56.546Z,27.1
2018-08-23T10:31:11.736Z,27.2
2018-08-23T10:32:24.165Z,27.2
2018-08-23T10:32:43.828Z,27.2
2018-08-23T10:33:45.743Z,27.2
2018-08-23T10:34:51.247Z,27.2
2018-08-23T10:35:48.920Z,27.2
2018-08-23T10:36:58.926Z,27.2
2018-08-23T10:37:56.893Z,27.2
2018-08-23T10:38:57.889Z,27.3
2018-08-23T10:40:03.339Z,27.3
2018-08-23T10:41:00.188Z,27.3
2018-08-23T10:41:55.736Z,27.3
2018-08-23T10:43:09.123Z,27.3
2018-08-23T10:44:09.028Z,27.3
2018-08-23T10:45:13.568Z,27.3
2018-08-23T10:46:18.416Z,27.3
2018-08-23T10:47:16.508Z,27.3
2018-08-23T10:48:14.900Z,27.3
2018-08-23T10:49:12.833Z,27.3
2018-08-23T10:50:13.216Z,27.3
2018-08-23T10:51:11.553Z,27.3
2018-08-23T10:52:09.122Z,27.3
2018-08-23T10:53:08.483Z,27.3
2018-08-23T10:54:12.041Z,27.3
2018-08-23T10:55:15.881Z,27.3
2018-08-23T10:56:26.472Z,27.3
2018-08-23T10:57:25.005Z,27.3
2018-08-23T10:58:22.992Z,27.4
2018-08-23T10:59:20.721Z,27.4
2018-08-23T11:00:18.508Z,27.4
2018-08-23T11:01:18.704Z,27.4
2018-08-23T11:02:17.872Z,27.4
2018-08-23T11:03:19.588Z,27.4
2018-08-23T11:04:17.090Z,27.4
2018-08-23T11:05:19.669Z,27.4
2018-08-23T11:06:15.320Z,27.4
2018-08-23T11:07:31.212Z,27.4
2018-08-23T11:08:26.781Z,27.4
2018-08-23T11:09:28.609Z,27.4
2018-08-23T11:10:29.554Z,27.5
2018-08-23T11:11:24.598Z,27.4
2018-08-23T11:12:25.847Z,27.5
2018-08-23T11:13:26.295Z,27.4
2018-08-23T11:14:25.676Z,27.5
2018-08-23T11:15:24.489Z,27.5
2018-08-23T11:16:28.512Z,27.5
2018-08-23T11:17:27.620Z,27.5
2018-08-23T11:18:32.161Z,27.5
2018-08-23T11:19:27.504Z,27.5
2018-08-23T11:20:29.646Z,27.5
2018-08-23T11:21:42.002Z,27.5
2018-08-23T11:22:36.756Z,27.5
2018-08-23T11:23:34.556Z,27.5
2018-08-23T11:24:34.640Z,27.6
2018-08-23T11:25:33.706Z,27.5
2018-08-23T11:26:35.817Z,27.6
2018-08-23T11:27:36.956Z,27.6
2018-08-23T11:28:32.406Z,27.6
2018-08-23T11:29:29.980Z,27.6
2018-08-23T11:30:33.034Z,27.6
2018-08-23T11:31:37.100Z,27.6
2018-08-23T11:32:52.707Z,27.6
2018-08-23T11:33:59.173Z,27.6
2018-08-23T11:34:58.231Z,27.6
2018-08-23T11:35:55.991Z,27.6
2018-08-23T11:36:58.342Z,27.6
2018-08-23T11:37:57.448Z,27.6
2018-08-23T11:38:56.692Z,27.6
2018-08-23T11:40:04.345Z,27.7
2018-08-23T11:41:03.931Z,27.7
2018-08-23T11:42:05.386Z,27.7
2018-08-23T11:43:01.949Z,27.7
2018-08-23T11:44:18.678Z,27.7
2018-08-23T11:45:16.236Z,27.7
2018-08-23T11:46:16.515Z,27.7
2018-08-23T11:47:17.484Z,27.7
2018-08-23T11:48:17.661Z,27.7
2018-08-23T11:49:17.235Z,27.7
2018-08-23T11:50:16.506Z,27.7
2018-08-23T11:51:14.755Z,27.7
2018-08-23T11:52:15.387Z,27.8
2018-08-23T11:53:13.485Z,27.7
2018-08-23T11:54:10.740Z,27.8
2018-08-23T11:55:11.356Z,27.8
2018-08-23T11:56:24.915Z,27.8
2018-08-23T11:57:21.083Z,27.8
2018-08-23T11:58:20.217Z,27.8
2018-08-23T11:59:19.137Z,27.8
2018-08-23T12:00:16.722Z,27.8
2018-08-23T12:01:21.041Z,27.8
2018-08-23T12:02:20.997Z,27.8
2018-08-23T12:03:19.148Z,27.8
2018-08-23T12:04:18.981Z,27.8
2018-08-23T12:05:17.595Z,27.8
2018-08-23T12:06:14.232Z,27.8
2018-08-23T12:07:27.888Z,27.8
2018-08-23T12:08:22.997Z,27.8
2018-08-23T12:09:21.283Z,27.8
2018-08-23T12:10:19.266Z,27.8
2018-08-23T12:11:17.389Z,27.8
2018-08-23T12:12:19.639Z,27.9
2018-08-23T12:13:18.775Z,27.9
2018-08-23T12:14:16.952Z,27.9
2018-08-23T12:15:16.286Z,27.8
2018-08-23T12:16:16.173Z,27.9
2018-08-23T12:17:19.826Z,27.9
2018-08-23T12:18:22.820Z,27.9
2018-08-23T12:19:20.731Z,27.9
2018-08-23T12:20:20.439Z,27.9
2018-08-23T12:21:20.243Z,27.9
2018-08-23T12:22:18.544Z,27.9
2018-08-23T12:23:18.169Z,27.9
2018-08-23T12:24:15.242Z,27.9
2018-08-23T12:25:29.047Z,27.9
2018-08-23T12:26:31.229Z,27.9
2018-08-23T12:27:31.139Z,27.9
2018-08-23T12:28:31.725Z,27.9
2018-08-23T12:29:29.333Z,27.9
2018-08-23T12:30:26.978Z,27.9
2018-08-23T12:31:25.322Z,27.9
2018-08-23T12:32:31.961Z,27.9
2018-08-23T12:33:26.933Z,27.9
2018-08-23T12:34:31.275Z,27.9
2018-08-23T12:35:32.784Z,27.9
2018-08-23T12:36:29.356Z,27.9
2018-08-23T12:37:28.548Z,27.9
2018-08-23T12:38:28.788Z,27.9
2018-08-23T12:39:25.970Z,27.8
2018-08-23T12:40:25.674Z,27.9
2018-08-23T12:41:25.402Z,27.8
2018-08-23T12:42:57.208Z,27.8
2018-08-23T12:43:55.047Z,27.8
2018-08-23T12:44:53.169Z,27.8
2018-08-23T12:45:56.366Z,27.9
2018-08-23T12:47:04.108Z,27.8
2018-08-23T12:48:06.000Z,27.8
2018-08-23T12:49:04.097Z,27.8
2018-08-23T12:50:05.671Z,27.8
2018-08-23T12:51:10.142Z,27.8
2018-08-23T12:52:06.344Z,27.8
2018-08-23T12:53:04.256Z,27.8
2018-08-23T12:54:25.704Z,27.8
2018-08-23T12:55:16.476Z,27.8
2018-08-23T12:56:21.237Z,27.8
2018-08-23T12:57:20.522Z,27.8
2018-08-23T12:58:18.905Z,27.8
2018-08-23T12:59:19.028Z,27.8
2018-08-23T13:00:18.006Z,27.8
2018-08-23T13:01:16.024Z,27.8
2018-08-23T13:02:14.397Z,27.8
2018-08-23T13:03:12.284Z,27.8
2018-08-23T13:04:28.852Z,27.8
2018-08-23T13:05:23.907Z,27.8
2018-08-23T13:06:23.975Z,27.8
2018-08-23T13:07:24.237Z,27.8
2018-08-23T13:08:21.948Z,27.7
2018-08-23T13:09:20.911Z,27.8
2018-08-23T13:10:20.315Z,27.8
2018-08-23T13:11:20.549Z,27.8
2018-08-23T13:12:18.570Z,27.8
2018-08-23T13:13:17.683Z,27.8
2018-08-23T13:14:18.359Z,27.8
2018-08-23T13:15:30.746Z,27.8
2018-08-23T13:16:29.949Z,27.8
2018-08-23T13:17:25.727Z,27.8
2018-08-23T13:18:24.443Z,27.8
2018-08-23T13:19:21.964Z,27.8
2018-08-23T13:20:25.191Z,27.8
2018-08-23T13:21:35.080Z,27.8
2018-08-23T13:22:33.347Z,27.8
2018-08-23T13:23:31.743Z,27.8
2018-08-23T13:24:29.321Z,27.8
2018-08-23T13:25:27.934Z,27.8
2018-08-23T13:26:25.467Z,27.9
2018-08-23T13:27:35.679Z,27.9
2018-08-23T13:28:33.916Z,27.9
2018-08-23T13:29:37.114Z,27.8
2018-08-23T13:30:31.685Z,27.9
2018-08-23T13:31:30.736Z,27.9
2018-08-23T13:32:42.939Z,27.9
2018-08-23T13:33:39.348Z,27.9
2018-08-23T13:34:38.508Z,27.9
2018-08-23T13:35:38.751Z,27.9
2018-08-23T13:36:39.224Z,27.9
2018-08-23T13:37:37.505Z,27.9